Time;durP1;ratioP1;P1;durP2;ratioP2;P2;SDS_P1;SDS_P2;PMS_P1;PMS_P2;Temp;Humidity;BMP_temperature;BMP_pressure;BME280_temperature;BME280_humidity;BME280_pressure;Samples;Min_cycle;Max_cycle;Signal;HPM_P1;HPM_P2
2023/05/15 00:05:51;;;;;;;5;1.9;;;;;;;12.6;87.8;98080;;;;
2023/05/15 00:15:51;;;;;;;5;1.9;;;;;;;12.7;87.4;98070;;;;
2023/05/15 00:25:51;;;;;;;5;1.9;;;;;;;12.7;87.4;98060;;;;
2023/05/15 00:36:51;;;;;;;4.4;2.3;;;;;;;12.7;87.6;98040;;;;
2023/05/15 00:46:51;;;;;;;4.4;2.3;;;;;;;12.7;87.7;98020;;;;
2023/05/15 00:56:51;;;;;;;4.4;2.3;;;;;;;12.7;87.8;98000;;;;
2023/05/15 01:07:51;;;;;;;5.1;2.6;;;;;;;12.7;87.9;97990;;;;
2023/05/15 01:17:51;;;;;;;5.1;2.6;;;;;;;12.7;88;98000;;;;
2023/05/15 01:28:51;;;;;;;5.1;2.6;;;;;;;12.8;87.7;97990;;;;
2023/05/15 01:38:51;;;;;;;5.3;2.5;;;;;;;12.8;87.5;97990;;;;
2023/05/15 01:49:51;;;;;;;5.3;2.5;;;;;;;12.8;87.4;97980;;;;
2023/05/15 01:59:51;;;;;;;5.3;2.5;;;;;;;12.9;87.4;97960;;;;
2023/05/15 02:09:51;;;;;;;4.6;2.7;;;;;;;12.8;87.4;97940;;;;
2023/05/15 02:20:51;;;;;;;4.6;2.7;;;;;;;12.8;87.9;97930;;;;
2023/05/15 02:31:51;;;;;;;5.7;2.8;;;;;;;12.7;88.4;97920;;;;
2023/05/15 02:42:51;;;;;;;5.7;2.8;;;;;;;12.7;88.5;97910;;;;
2023/05/15 02:52:51;;;;;;;5.7;2.8;;;;;;;12.6;88.9;97900;;;;
2023/05/15 03:03:51;;;;;;;4.9;2.7;;;;;;;12.7;88.9;97900;;;;
2023/05/15 03:14:51;;;;;;;4.9;2.7;;;;;;;12.7;89;97890;;;;
2023/05/15 03:25:51;;;;;;;4.9;2.7;;;;;;;12.7;89;97900;;;;
2023/05/15 03:36:51;;;;;;;6.2;3.6;;;;;;;12.8;88.8;97890;;;;
2023/05/15 03:46:51;;;;;;;6.2;3.6;;;;;;;12.8;88.8;97880;;;;
2023/05/15 03:56:51;;;;;;;6.2;3.6;;;;;;;12.8;89;97870;;;;
2023/05/15 04:07:51;;;;;;;5.7;3.5;;;;;;;13;88.9;97860;;;;
2023/05/15 04:17:51;;;;;;;5.7;3.5;;;;;;;13.2;89;97850;;;;
2023/05/15 04:27:51;;;;;;;5.7;3.5;;;;;;;13.4;88.8;97840;;;;
2023/05/15 04:38:51;;;;;;;7.1;4.7;;;;;;;13.5;88.6;97810;;;;
2023/05/15 04:48:51;;;;;;;7.1;4.7;;;;;;;13.7;88.5;97810;;;;
2023/05/15 04:59:51;;;;;;;7.1;4.7;;;;;;;14.1;87.7;97810;;;;
2023/05/15 05:09:51;;;;;;;7.9;4.6;;;;;;;14.1;86.7;97810;;;;
2023/05/15 05:20:51;;;;;;;7.9;4.6;;;;;;;14.4;85.9;97800;;;;
2023/05/15 05:31:51;;;;;;;6.9;3.3;;;;;;;14.5;85.6;97820;;;;
2023/05/15 05:41:51;;;;;;;6.9;3.3;;;;;;;14.4;85.1;97830;;;;
2023/05/15 05:51:51;;;;;;;6.9;3.3;;;;;;;14.4;84.8;97820;;;;
2023/05/15 06:01:51;;;;;;;8.5;3.3;;;;;;;14.4;84.9;97790;;;;
2023/05/15 06:11:51;;;;;;;8.5;3.3;;;;;;;14.3;85.7;97760;;;;
2023/05/15 06:21:51;;;;;;;8.5;3.3;;;;;;;14.4;86.5;97760;;;;
2023/05/15 06:32:51;;;;;;;8.1;4.3;;;;;;;14.8;86.3;97760;;;;
2023/05/15 06:43:51;;;;;;;8.1;4.3;;;;;;;15.4;85.3;97750;;;;
2023/05/15 06:53:51;;;;;;;8.1;4.3;;;;;;;15.9;82.8;97740;;;;
2023/05/15 07:03:51;;;;;;;6.7;3.6;;;;;;;16.4;81.6;97740;;;;
2023/05/15 07:14:51;;;;;;;6.7;3.6;;;;;;;16.9;78.9;97750;;;;
2023/05/15 07:25:51;;;;;;;6.7;3.6;;;;;;;17.3;77.6;97760;;;;
2023/05/15 07:35:51;;;;;;;4;2.4;;;;;;;17.9;76.9;97760;;;;
2023/05/15 07:46:51;;;;;;;4;2.4;;;;;;;18.1;74.4;97760;;;;
2023/05/15 07:57:51;;;;;;;4;2.4;;;;;;;17.8;75.7;97770;;;;
2023/05/15 08:07:51;;;;;;;4.6;2.7;;;;;;;18;76;97780;;;;
2023/05/15 08:17:51;;;;;;;4.6;2.7;;;;;;;18.5;74;97780;;;;
2023/05/15 08:27:51;;;;;;;4.6;2.7;;;;;;;18.6;71.6;97770;;;;
2023/05/15 08:37:51;;;;;;;5.7;3;;;;;;;19;70.5;97790;;;;
2023/05/15 08:47:51;;;;;;;5.7;3;;;;;;;19.2;69.6;97780;;;;
2023/05/15 08:58:51;;;;;;;5.7;3;;;;;;;19.5;69.3;97780;;;;
2023/05/15 09:09:51;;;;;;;3.8;2;;;;;;;19.1;69.7;97800;;;;
2023/05/15 09:20:51;;;;;;;3.8;2;;;;;;;19.2;68.6;97800;;;;
2023/05/15 09:30:51;;;;;;;3.8;2;;;;;;;18.8;69;97790;;;;
2023/05/15 09:41:51;;;;;;;2.8;1.5;;;;;;;18.6;70.1;97810;;;;
2023/05/15 09:51:51;;;;;;;2.8;1.5;;;;;;;18.5;71.1;97810;;;;
2023/05/15 10:02:51;;;;;;;4.1;2.1;;;;;;;18.7;70.2;97800;;;;
2023/05/15 10:12:51;;;;;;;4.1;2.1;;;;;;;18.8;69.3;97790;;;;
2023/05/15 10:23:51;;;;;;;4.1;2.1;;;;;;;18.9;70.2;97810;;;;
2023/05/15 10:34:51;;;;;;;5;2.1;;;;;;;18.8;70.8;97820;;;;
2023/05/15 10:44:51;;;;;;;5;2.1;;;;;;;18.6;70.5;97830;;;;
2023/05/15 10:55:51;;;;;;;5;2.1;;;;;;;18.8;71.3;97820;;;;
2023/05/15 11:05:51;;;;;;;6.8;3.1;;;;;;;18.9;71.6;97810;;;;
2023/05/15 11:15:51;;;;;;;6.8;3.1;;;;;;;18.7;72.1;97810;;;;
2023/05/15 11:25:51;;;;;;;6.8;3.1;;;;;;;18.8;71.6;97800;;;;
2023/05/15 11:36:51;;;;;;;6.5;3.7;;;;;;;18.9;71.9;97790;;;;
2023/05/15 11:46:51;;;;;;;6.5;3.7;;;;;;;19.9;70.1;97810;;;;
2023/05/15 11:57:51;;;;;;;6.5;3.7;;;;;;;20.7;66.7;97800;;;;
2023/05/15 12:07:51;;;;;;;8;4;;;;;;;20.7;65.6;97780;;;;
2023/05/15 12:18:51;;;;;;;8;4;;;;;;;20.8;65.9;97770;;;;
2023/05/15 12:28:53;;;;;;;8;4;;;;;;;20.7;66.3;97770;;;;
2023/05/15 12:38:51;;;;;;;5.9;2.7;;;;;;;21;64.8;97770;;;;
2023/05/15 12:48:51;;;;;;;5.9;2.7;;;;;;;21.5;64.2;97740;;;;
2023/05/15 12:58:53;;;;;;;5.9;2.7;;;;;;;20.8;63.3;97740;;;;
2023/05/15 13:09:51;;;;;;;4.6;2.7;;;;;;;20.9;64.2;97740;;;;
2023/05/15 13:19:50;;;;;;;4.6;2.7;;;;;;;20.3;68;97740;;;;
2023/05/15 13:29:51;;;;;;;4.6;2.7;;;;;;;19.5;74.3;97770;;;;
2023/05/15 13:40:51;;;;;;;4.3;2.4;;;;;;;19.5;73.7;97770;;;;
2023/05/15 13:51:51;;;;;;;4.3;2.4;;;;;;;19.1;73.4;97780;;;;
2023/05/15 14:02:50;;;;;;;4.2;1.8;;;;;;;20.3;65.3;97770;;;;
2023/05/15 14:12:51;;;;;;;4.2;1.8;;;;;;;21;66.4;97770;;;;
2023/05/15 14:23:50;;;;;;;4.2;1.8;;;;;;;21.9;62.7;97770;;;;
2023/05/15 14:33:50;;;;;;;2.9;1.6;;;;;;;21.4;63.5;97770;;;;
2023/05/15 14:43:50;;;;;;;2.9;1.6;;;;;;;21.3;63.5;97770;;;;
2023/05/15 14:54:50;;;;;;;2.9;1.6;;;;;;;21.4;61.9;97770;;;;
2023/05/15 15:04:51;;;;;;;4.8;1.8;;;;;;;19.9;67.9;97790;;;;
2023/05/15 15:14:50;;;;;;;4.8;1.8;;;;;;;20.6;69.4;97790;;;;
2023/05/15 15:25:50;;;;;;;4.8;1.8;;;;;;;22.3;62;97790;;;;
2023/05/15 15:35:51;;;;;;;7;4.1;;;;;;;21.2;64;97790;;;;
2023/05/15 15:45:50;;;;;;;7;4.1;;;;;;;21.2;66.3;97790;;;;
2023/05/15 15:56:50;;;;;;;7;4.1;;;;;;;25.2;55.8;97810;;;;
2023/05/15 16:07:50;;;;;;;6.9;3.6;;;;;;;24;56.1;97810;;;;
2023/05/15 16:17:51;;;;;;;6.9;3.6;;;;;;;22.1;60.3;97820;;;;
2023/05/15 16:27:50;;;;;;;6.9;3.6;;;;;;;21.1;63.3;97820;;;;
2023/05/15 16:38:50;;;;;;;5.6;2.4;;;;;;;20.3;66.3;97830;;;;
2023/05/15 16:49:51;;;;;;;5.6;2.4;;;;;;;19.9;62.6;97840;;;;
2023/05/15 16:59:50;;;;;;;5.6;2.4;;;;;;;19.9;59.9;97840;;;;
2023/05/15 17:09:50;;;;;;;4.4;2.3;;;;;;;20;59.2;97850;;;;
2023/05/15 17:19:51;;;;;;;4.4;2.3;;;;;;;18.8;61.9;97860;;;;
2023/05/15 17:30:50;;;;;;;4.4;2.3;;;;;;;17.8;63.9;97870;;;;
2023/05/15 17:40:50;;;;;;;4;1.7;;;;;;;17.4;64.3;97880;;;;
2023/05/15 17:50:51;;;;;;;4;1.7;;;;;;;17.1;64.7;97900;;;;
2023/05/15 18:01:50;;;;;;;3.5;1.4;;;;;;;16.5;65.8;97900;;;;
2023/05/15 18:12:50;;;;;;;3.5;1.4;;;;;;;16;67.3;97910;;;;
2023/05/15 18:22:50;;;;;;;3.5;1.4;;;;;;;-132.3;78.5;76240;;;;
2023/05/15 18:32:50;;;;;;;5.1;2.2;;;;;;;-132.3;79.8;76310;;;;
2023/05/15 18:42:50;;;;;;;5.1;2.2;;;;;;;-132.3;81.1;76350;;;;
2023/05/15 18:52:50;;;;;;;5.1;2.2;;;;;;;-132.3;81.1;76390;;;;
2023/05/15 19:03:50;;;;;;;3.7;1.8;;;;;;;-132.3;81.4;76420;;;;
2023/05/15 19:14:50;;;;;;;3.7;1.8;;;;;;;-132.3;81.6;76450;;;;
2023/05/15 19:25:50;;;;;;;3.7;1.8;;;;;;;-132.3;82.5;76490;;;;
2023/05/15 19:35:51;;;;;;;2.4;1.4;;;;;;;-132.3;82.7;76530;;;;
2023/05/15 19:46:50;;;;;;;2.4;1.4;;;;;;;-132.3;84.4;76570;;;;
2023/05/15 19:56:50;;;;;;;2.4;1.4;;;;;;;-132.3;85.4;76590;;;;
2023/05/15 20:07:51;;;;;;;;;;;;;;;;;;;;;
2023/05/15 20:17:50;;;;;;;;;;;;;;;;;;;;;
2023/05/15 20:27:50;;;;;;;;;;;;;;;-132.3;87.7;76660;;;;
2023/05/15 20:38:51;;;;;;;3.3;1.4;;;;;;;-132.3;89.4;76680;;;;
2023/05/15 20:48:50;;;;;;;3.3;1.4;;;;;;;-132.3;89.9;76720;;;;
2023/05/15 20:58:50;;;;;;;3.3;1.4;;;;;;;-132.3;89.3;76750;;;;
2023/05/15 21:09:50;;;;;;;3.7;2;;;;;;;-132.3;90.9;76780;;;;
2023/05/15 21:20:50;;;;;;;3.7;2;;;;;;;-132.3;91.5;76820;;;;
2023/05/15 21:30:50;;;;;;;;;;;;;;;-132.3;91.8;76850;;;;
2023/05/15 21:41:51;;;;;;;4.7;1.5;;;;;;;-132.3;94.8;76860;;;;
2023/05/15 21:52:50;;;;;;;4.7;1.5;;;;;;;-132.3;95.3;76860;;;;
2023/05/15 22:02:50;;;;;;;3.1;1.5;;;;;;;-132.3;95.5;76850;;;;
2023/05/15 22:13:50;;;;;;;3.1;1.5;;;;;;;-132.3;95.7;76840;;;;
2023/05/15 22:24:50;;;;;;;3.1;1.5;;;;;;;-132.3;95.5;76850;;;;
2023/05/15 22:34:50;;;;;;;2.9;1.5;;;;;;;-132.3;95.7;76850;;;;
2023/05/15 22:45:51;;;;;;;2.9;1.5;;;;;;;-132.3;96.1;76880;;;;
2023/05/15 22:56:50;;;;;;;2.9;1.5;;;;;;;-132.3;97;76910;;;;
2023/05/15 23:07:50;;;;;;;3.2;1.5;;;;;;;-132.3;97.4;76920;;;;
2023/05/15 23:17:50;;;;;;;3.2;1.5;;;;;;;-132.3;97.6;76920;;;;
2023/05/15 23:28:50;;;;;;;3.2;1.5;;;;;;;-132.3;97.5;76920;;;;
2023/05/15 23:38:50;;;;;;;2.9;1.6;;;;;;;-132.3;97.6;76940;;;;
2023/05/15 23:49:50;;;;;;;2.9;1.6;;;;;;;-132.3;98.4;76960;;;;
